createdAt,value
2023-01-05T00:01:27.244Z,1.57
2023-01-05T00:03:54.089Z,1.90
2023-01-05T00:06:21.158Z,1.00
2023-01-05T00:08:48.221Z,1.80
2023-01-05T00:11:37.247Z,1.60
2023-01-05T00:14:23.746Z,1.53
2023-01-05T00:17:09.369Z,2.33
2023-01-05T00:19:54.583Z,2.40
2023-01-05T00:22:38.816Z,3.53
2023-01-05T00:25:13.075Z,1.40
2023-01-05T00:27:45.874Z,1.00
2023-01-05T00:30:15.437Z,1.07
2023-01-05T00:32:43.522Z,1.20
2023-01-05T00:35:11.991Z,2.00
2023-01-05T00:37:39.441Z,5.80
2023-01-05T00:40:08.646Z,2.13
2023-01-05T00:42:35.649Z,4.97
2023-01-05T00:45:03.067Z,6.67
2023-01-05T00:47:30.122Z,2.60
2023-01-05T00:49:56.882Z,5.73
2023-01-05T00:52:23.924Z,2.93
2023-01-05T00:54:50.705Z,2.97
2023-01-05T00:57:17.899Z,3.70
2023-01-05T00:59:44.627Z,3.20
2023-01-05T01:02:11.815Z,2.80
2023-01-05T01:04:38.692Z,5.97
2023-01-05T01:07:06.667Z,4.60
2023-01-05T01:09:34.269Z,5.20
2023-01-05T01:12:01.988Z,6.37
2023-01-05T01:14:29.212Z,3.17
2023-01-05T01:16:56.468Z,5.60
2023-01-05T01:19:25.801Z,6.47
2023-01-05T01:21:53.233Z,4.53
2023-01-05T01:24:23.978Z,4.70
2023-01-05T01:26:51.825Z,10.13
2023-01-05T01:29:18.713Z,6.50
2023-01-05T01:31:50.131Z,3.77
2023-01-05T01:34:17.655Z,5.60
2023-01-05T01:36:45.294Z,5.77
2023-01-05T01:39:14.115Z,8.90
2023-01-05T01:41:45.059Z,6.00
2023-01-05T01:44:49.504Z,6.70
2023-01-05T01:47:34.224Z,5.13
2023-01-05T01:50:14.379Z,7.43
2023-01-05T01:52:43.069Z,3.27
2023-01-05T01:55:10.627Z,7.97
2023-01-05T01:57:39.247Z,5.40
2023-01-05T02:00:09.199Z,9.80
2023-01-05T02:02:52.233Z,7.23
2023-01-05T02:05:28.414Z,4.67
2023-01-05T02:07:55.547Z,6.23
2023-01-05T02:10:51.571Z,9.43
2023-01-05T02:13:37.277Z,4.57
2023-01-05T02:16:23.177Z,5.70
2023-01-05T02:19:05.233Z,3.50
2023-01-05T02:21:41.061Z,7.30
2023-01-05T02:24:41.493Z,4.37
2023-01-05T02:27:27.462Z,6.90
2023-01-05T02:30:16.369Z,4.80
2023-01-05T02:32:57.070Z,5.47
2023-01-05T02:35:42.338Z,6.77
2023-01-05T02:38:18.551Z,4.23
2023-01-05T02:40:49.786Z,5.03
2023-01-05T02:43:21.678Z,7.23
2023-01-05T02:45:49.384Z,8.83
2023-01-05T02:48:16.296Z,6.20
2023-01-05T02:50:47.062Z,4.50
2023-01-05T02:53:13.822Z,5.53
2023-01-05T02:56:24.023Z,5.83
2023-01-05T02:59:14.045Z,5.77
2023-01-05T03:01:54.334Z,5.37
2023-01-05T03:04:28.579Z,6.17
2023-01-05T03:07:05.468Z,6.13
2023-01-05T03:09:37.597Z,4.90
2023-01-05T03:12:39.908Z,6.77
2023-01-05T03:15:20.987Z,6.77
2023-01-05T03:17:52.435Z,9.23
2023-01-05T03:20:24.175Z,8.07
2023-01-05T03:23:15.130Z,7.27
2023-01-05T03:26:00.730Z,8.33
2023-01-05T03:28:57.719Z,7.90
2023-01-05T03:32:07.261Z,5.80
2023-01-05T03:35:36.205Z,3.97
2023-01-05T03:38:17.630Z,5.07
2023-01-05T03:40:46.508Z,9.30
2023-01-05T03:43:14.333Z,5.70
2023-01-05T03:45:50.803Z,4.53
2023-01-05T03:48:22.822Z,3.07
2023-01-05T03:50:50.358Z,4.17
2023-01-05T03:53:19.188Z,6.53
2023-01-05T03:55:46.767Z,7.30
2023-01-05T03:58:14.431Z,5.87
2023-01-05T04:00:45.349Z,6.53
2023-01-05T04:03:14.314Z,2.47
2023-01-05T04:05:41.500Z,6.90
2023-01-05T04:08:08.367Z,6.57
2023-01-05T04:10:36.728Z,5.10
2023-01-05T04:13:04.641Z,3.47
2023-01-05T04:15:32.211Z,4.90
2023-01-05T04:17:59.593Z,5.70
2023-01-05T04:20:26.944Z,6.10
2023-01-05T04:22:54.316Z,3.80
2023-01-05T04:25:23.174Z,5.03
2023-01-05T04:27:49.986Z,3.70
2023-01-05T04:30:18.385Z,4.30
2023-01-05T04:32:45.271Z,5.83
2023-01-05T04:35:15.593Z,5.13
2023-01-05T04:37:44.787Z,4.43
2023-01-05T04:40:12.072Z,3.73
2023-01-05T04:42:47.451Z,5.33
2023-01-05T04:45:14.461Z,3.83
2023-01-05T04:47:41.418Z,2.80
2023-01-05T04:50:10.961Z,3.30
2023-01-05T04:52:38.994Z,5.70
2023-01-05T04:55:07.430Z,5.60
2023-01-05T04:57:35.374Z,5.27
2023-01-05T05:00:03.978Z,7.17
2023-01-05T05:02:32.854Z,4.67
2023-01-05T05:05:01.128Z,5.00
2023-01-05T05:07:27.888Z,4.23
2023-01-05T05:09:55.216Z,4.60
2023-01-05T05:12:22.167Z,6.97
2023-01-05T05:14:52.545Z,3.90
2023-01-05T05:17:19.413Z,8.37
2023-01-05T05:19:46.524Z,3.43
2023-01-05T05:22:13.757Z,4.40
2023-01-05T05:24:41.825Z,4.83
2023-01-05T05:27:09.225Z,7.03
2023-01-05T05:29:36.312Z,3.57
2023-01-05T05:32:03.418Z,3.63
2023-01-05T05:34:30.495Z,6.70
2023-01-05T05:36:57.269Z,4.57
2023-01-05T05:39:24.357Z,3.37
2023-01-05T05:41:51.151Z,3.70
2023-01-05T05:44:18.340Z,4.97
2023-01-05T05:46:45.230Z,5.00
2023-01-05T05:49:12.312Z,3.87
2023-01-05T05:51:39.193Z,6.20
2023-01-05T05:54:06.325Z,7.17
2023-01-05T05:56:33.056Z,3.03
2023-01-05T05:59:01.765Z,6.63
2023-01-05T06:01:29.201Z,6.47
2023-01-05T06:03:56.720Z,7.10
2023-01-05T06:06:23.621Z,4.27
2023-01-05T06:08:51.521Z,6.07
2023-01-05T06:11:19.039Z,8.40
2023-01-05T06:13:46.387Z,10.37
2023-01-05T06:16:13.252Z,6.63
2023-01-05T06:18:40.392Z,4.07
2023-01-05T06:21:07.276Z,9.50
2023-01-05T06:23:34.268Z,8.67
2023-01-05T06:26:01.074Z,6.63
2023-01-05T06:28:28.065Z,7.27
2023-01-05T06:30:54.950Z,7.23
2023-01-05T06:33:22.026Z,10.83
2023-01-05T06:35:48.824Z,7.60
2023-01-05T06:38:16.522Z,8.73
2023-01-05T06:40:44.575Z,10.67
2023-01-05T06:43:12.420Z,10.50
2023-01-05T06:45:39.185Z,11.87
2023-01-05T06:48:06.785Z,11.53
2023-01-05T06:50:33.898Z,10.67
2023-01-05T06:53:01.201Z,10.20
2023-01-05T06:55:28.039Z,13.47
2023-01-05T06:58:00.463Z,17.37
2023-01-05T07:00:28.600Z,11.53
2023-01-05T07:02:55.770Z,18.37
2023-01-05T07:05:24.432Z,12.87
2023-01-05T07:07:51.604Z,12.57
2023-01-05T07:10:18.619Z,13.33
2023-01-05T07:12:45.623Z,16.93
2023-01-05T07:15:12.591Z,10.63
2023-01-05T07:17:39.585Z,11.83
2023-01-05T07:20:06.694Z,11.83
2023-01-05T07:22:33.836Z,12.93
2023-01-05T07:25:00.972Z,14.50
2023-01-05T07:27:28.018Z,13.00
2023-01-05T07:29:54.916Z,14.10
2023-01-05T07:32:21.907Z,13.60
2023-01-05T07:34:55.341Z,17.20
2023-01-05T07:37:25.181Z,8.60
2023-01-05T07:39:52.615Z,15.87
2023-01-05T07:42:19.912Z,12.33
2023-01-05T07:44:48.312Z,9.03
2023-01-05T07:47:15.387Z,13.03
2023-01-05T07:49:42.212Z,6.77
2023-01-05T07:52:09.406Z,13.43
2023-01-05T07:54:36.165Z,11.00
2023-01-05T07:57:03.382Z,8.77
2023-01-05T07:59:30.833Z,12.67
2023-01-05T08:01:58.738Z,5.83
2023-01-05T08:04:25.625Z,12.23
2023-01-05T08:06:52.717Z,11.50
2023-01-05T08:09:38.266Z,12.23
2023-01-05T08:12:05.535Z,15.27
2023-01-05T08:14:32.315Z,15.00
2023-01-05T08:16:59.352Z,18.93
2023-01-05T08:19:26.085Z,20.03
2023-01-05T08:21:53.292Z,13.30
2023-01-05T08:24:20.008Z,10.60
2023-01-05T08:26:50.546Z,17.20
2023-01-05T08:29:17.386Z,17.80
2023-01-05T08:31:44.474Z,15.63
2023-01-05T08:34:11.368Z,16.57
2023-01-05T08:36:38.397Z,17.00
2023-01-05T08:39:05.691Z,14.37
2023-01-05T08:41:35.893Z,12.83
2023-01-05T08:44:06.058Z,14.73
2023-01-05T08:46:35.342Z,14.37
2023-01-05T08:49:04.908Z,14.97
2023-01-05T08:51:32.525Z,13.07
2023-01-05T08:53:59.302Z,12.20
2023-01-05T08:56:27.260Z,10.13
2023-01-05T08:58:59.204Z,12.13
2023-01-05T09:01:26.846Z,13.70
2023-01-05T09:03:54.180Z,13.30
2023-01-05T09:06:21.329Z,9.50
2023-01-05T09:08:48.642Z,12.73
2023-01-05T09:11:19.213Z,9.10
2023-01-05T09:14:04.246Z,7.30
2023-01-05T09:17:05.040Z,8.17
2023-01-05T09:19:21.371Z,9.10
2023-01-05T09:21:48.457Z,5.20
2023-01-05T09:24:15.281Z,10.73
2023-01-05T09:26:42.960Z,6.07
2023-01-05T09:29:11.425Z,7.63
2023-01-05T09:31:40.211Z,10.30
2023-01-05T09:34:07.008Z,8.13
2023-01-05T09:36:34.114Z,7.37
2023-01-05T09:39:00.979Z,7.90
2023-01-05T09:41:36.665Z,5.70
2023-01-05T09:44:36.366Z,6.30
2023-01-05T09:47:15.563Z,9.33
2023-01-05T09:49:42.814Z,6.70
2023-01-05T09:52:11.969Z,10.47
2023-01-05T09:54:40.029Z,8.30
2023-01-05T09:57:16.493Z,8.03
2023-01-05T09:59:55.611Z,7.60
2023-01-05T10:02:22.777Z,9.97
2023-01-05T10:04:50.220Z,6.73
2023-01-05T10:07:27.341Z,7.33
2023-01-05T10:09:57.575Z,8.43
2023-01-05T10:12:50.271Z,9.37
2023-01-05T10:15:19.734Z,5.93
2023-01-05T10:17:47.739Z,9.23
2023-01-05T10:20:34.391Z,10.13
2023-01-05T10:23:12.820Z,13.23
2023-01-05T10:25:46.150Z,8.47
2023-01-05T10:28:41.042Z,9.33
2023-01-05T10:31:22.208Z,14.40
2023-01-05T10:34:16.463Z,11.43
2023-01-05T10:37:11.671Z,12.70
2023-01-05T10:39:56.181Z,11.23
2023-01-05T10:42:40.884Z,7.87
2023-01-05T10:45:11.879Z,11.40
2023-01-05T10:47:40.028Z,8.03
2023-01-05T10:50:29.918Z,11.07
2023-01-05T10:52:58.282Z,14.03
2023-01-05T10:55:27.876Z,9.50
2023-01-05T10:57:54.691Z,9.87
2023-01-05T11:00:38.931Z,7.87
2023-01-05T11:03:08.344Z,8.30
2023-01-05T11:05:38.163Z,13.77
2023-01-05T11:08:18.031Z,10.50
2023-01-05T11:10:55.547Z,9.37
2023-01-05T11:13:37.016Z,11.63
2023-01-05T11:16:14.161Z,9.63
2023-01-05T11:19:04.614Z,9.00
2023-01-05T11:21:44.543Z,10.60
2023-01-05T11:24:23.564Z,6.97
2023-01-05T11:26:56.483Z,10.93
2023-01-05T11:29:23.289Z,11.40
2023-01-05T11:31:55.241Z,7.07
2023-01-05T11:34:45.614Z,7.23
2023-01-05T11:37:12.727Z,7.00
2023-01-05T11:39:47.910Z,4.77
2023-01-05T11:42:36.360Z,4.70
2023-01-05T11:45:07.808Z,4.97
2023-01-05T11:47:43.753Z,3.40
2023-01-05T11:50:14.460Z,9.43
2023-01-05T11:52:54.135Z,9.77
2023-01-05T11:55:21.749Z,6.13
2023-01-05T11:57:55.807Z,6.90
2023-01-05T12:00:31.629Z,7.00
2023-01-05T12:03:29.483Z,8.73
2023-01-05T12:06:05.068Z,6.47
2023-01-05T12:09:01.001Z,7.37
2023-01-05T12:11:36.851Z,7.20
2023-01-05T12:14:31.739Z,8.07
2023-01-05T12:17:07.063Z,5.03
2023-01-05T12:20:15.497Z,4.73
2023-01-05T12:22:58.370Z,6.43
2023-01-05T12:25:42.066Z,4.27
2023-01-05T12:28:40.525Z,8.23
2023-01-05T12:34:16.211Z,5.40
2023-01-05T12:37:01.284Z,6.77
2023-01-05T12:39:39.941Z,2.77
2023-01-05T12:42:34.167Z,5.77
2023-01-05T12:45:34.058Z,5.10
2023-01-05T12:48:38.679Z,2.47
2023-01-05T12:51:12.624Z,5.80
2023-01-05T12:54:07.706Z,5.53
2023-01-05T12:56:44.170Z,4.10
2023-01-05T12:59:23.321Z,6.23
2023-01-05T13:02:03.349Z,6.60
2023-01-05T13:04:46.283Z,4.67
2023-01-05T13:07:33.829Z,5.67
2023-01-05T13:10:05.661Z,7.80
2023-01-05T13:12:34.575Z,6.27
2023-01-05T13:15:16.757Z,4.90
2023-01-05T13:17:49.006Z,5.13
2023-01-05T13:20:43.929Z,7.23
2023-01-05T13:23:25.636Z,5.73
2023-01-05T13:25:58.241Z,8.53
2023-01-05T13:28:28.663Z,7.90
2023-01-05T13:31:25.846Z,9.27
2023-01-05T13:34:14.524Z,7.60
2023-01-05T13:37:04.755Z,3.20
2023-01-05T13:40:09.450Z,6.90
2023-01-05T13:43:10.266Z,5.60
2023-01-05T13:46:01.636Z,3.40
2023-01-05T13:48:44.709Z,3.27
2023-01-05T13:51:57.800Z,5.97
2023-01-05T13:55:02.244Z,5.67
2023-01-05T13:57:38.766Z,3.30
2023-01-05T14:00:22.605Z,2.60
2023-01-05T14:03:07.979Z,4.13
2023-01-05T14:05:50.756Z,8.57
2023-01-05T14:08:20.430Z,8.47
2023-01-05T14:11:16.844Z,7.10
2023-01-05T14:14:05.681Z,2.03
2023-01-05T14:16:35.817Z,4.97
2023-01-05T14:19:36.839Z,5.50
2023-01-05T14:22:18.908Z,6.27
2023-01-05T14:24:48.842Z,5.87
2023-01-05T14:27:24.384Z,3.73
2023-01-05T14:29:53.880Z,8.40
2023-01-05T14:32:27.502Z,5.47
2023-01-05T14:37:29.618Z,8.83
2023-01-05T14:40:04.107Z,4.50
2023-01-05T14:42:43.859Z,6.50
2023-01-05T14:45:31.372Z,10.73
2023-01-05T14:48:05.198Z,12.00
2023-01-05T14:50:41.069Z,14.70
2023-01-05T14:53:20.665Z,14.30
2023-01-05T14:55:53.667Z,9.10
2023-01-05T14:58:35.941Z,9.97
2023-01-05T15:01:18.440Z,10.07
2023-01-05T15:03:55.398Z,8.23
2023-01-05T15:06:27.983Z,8.37
2023-01-05T15:09:33.671Z,10.80
2023-01-05T15:12:10.082Z,9.93
2023-01-05T15:15:16.323Z,9.17
2023-01-05T15:18:21.335Z,7.87
2023-01-05T15:21:10.755Z,7.00
2023-01-05T15:24:05.352Z,9.57
2023-01-05T15:26:54.190Z,8.63
2023-01-05T15:29:45.342Z,7.17
2023-01-05T15:32:23.418Z,6.93
2023-01-05T15:35:25.923Z,8.33
2023-01-05T15:37:53.263Z,7.90
2023-01-05T15:40:22.924Z,8.87
2023-01-05T15:42:52.811Z,13.10
2023-01-05T15:45:30.959Z,11.73
2023-01-05T15:48:06.692Z,12.20
2023-01-05T15:50:55.893Z,14.17
2023-01-05T15:53:35.339Z,7.27
2023-01-05T15:56:02.824Z,9.40
2023-01-05T15:58:33.696Z,12.60
2023-01-05T16:01:03.558Z,7.20
2023-01-05T16:03:38.128Z,8.73
2023-01-05T16:06:17.154Z,11.00
2023-01-05T16:08:47.281Z,13.97
2023-01-05T16:11:23.154Z,11.80
2023-01-05T16:13:54.991Z,8.90
2023-01-05T16:16:53.637Z,13.27
2023-01-05T16:19:37.111Z,16.90
2023-01-05T16:22:12.154Z,15.00
2023-01-05T16:25:00.740Z,14.53
2023-01-05T16:27:28.992Z,16.70
2023-01-05T16:30:32.869Z,11.67
2023-01-05T16:33:11.530Z,14.40
2023-01-05T16:35:52.958Z,14.87
2023-01-05T16:38:30.814Z,13.40
2023-01-05T16:41:05.242Z,19.33
2023-01-05T16:43:39.937Z,11.27
2023-01-05T16:46:18.685Z,12.53
2023-01-05T16:48:50.822Z,17.87
2023-01-05T16:51:21.367Z,13.97
2023-01-05T16:53:50.866Z,16.13
2023-01-05T16:56:19.187Z,17.23
2023-01-05T16:58:46.579Z,15.87
2023-01-05T17:01:13.563Z,15.07
2023-01-05T17:03:42.190Z,17.00
2023-01-05T17:06:28.701Z,16.17
2023-01-05T17:09:01.047Z,12.50
2023-01-05T17:11:38.219Z,13.03
2023-01-05T17:14:07.213Z,7.83
2023-01-05T17:16:34.286Z,7.13
2023-01-05T17:19:02.336Z,8.37
2023-01-05T17:21:31.990Z,6.07
2023-01-05T17:24:00.420Z,6.87
2023-01-05T17:26:36.597Z,8.10
2023-01-05T17:29:04.971Z,7.50
2023-01-05T17:31:32.145Z,4.77
2023-01-05T17:33:58.933Z,6.20
2023-01-05T17:36:32.869Z,8.67
2023-01-05T17:39:00.148Z,9.13
2023-01-05T17:41:27.243Z,9.90
2023-01-05T17:43:54.090Z,11.33
2023-01-05T17:46:24.710Z,8.33
2023-01-05T17:48:51.456Z,7.07
2023-01-05T17:51:18.436Z,6.80
2023-01-05T17:53:45.177Z,6.60
2023-01-05T17:56:12.666Z,7.93
2023-01-05T17:58:39.493Z,7.43
2023-01-05T18:01:06.832Z,4.73
2023-01-05T18:03:33.712Z,7.97
2023-01-05T18:06:01.901Z,4.73
2023-01-05T18:08:28.950Z,4.63
2023-01-05T18:10:56.365Z,6.80
2023-01-05T18:13:23.204Z,6.43
2023-01-05T18:15:52.678Z,6.07
2023-01-05T18:18:21.242Z,6.43
2023-01-05T18:20:51.439Z,6.37
2023-01-05T18:23:20.021Z,7.40
2023-01-05T18:25:48.210Z,8.47
2023-01-05T18:28:15.008Z,7.67
2023-01-05T18:30:42.664Z,6.63
2023-01-05T18:33:09.807Z,7.97
2023-01-05T18:35:43.448Z,5.13
2023-01-05T18:38:10.877Z,5.93
2023-01-05T18:40:38.410Z,6.80
2023-01-05T18:43:05.254Z,4.87
2023-01-05T18:45:38.899Z,6.57
2023-01-05T18:48:06.518Z,6.80
2023-01-05T18:50:33.571Z,4.43
2023-01-05T18:53:00.714Z,3.73
2023-01-05T18:55:27.873Z,10.30
2023-01-05T18:57:54.704Z,7.73
2023-01-05T19:00:21.807Z,4.33
2023-01-05T19:02:48.805Z,5.43
2023-01-05T19:05:16.188Z,5.43
2023-01-05T19:07:42.955Z,5.27
2023-01-05T19:10:09.988Z,4.37
2023-01-05T19:12:37.087Z,7.27
2023-01-05T19:15:04.475Z,6.37
2023-01-05T19:17:33.599Z,4.30
2023-01-05T19:20:00.773Z,5.63
2023-01-05T19:22:27.854Z,6.07
2023-01-05T19:24:54.936Z,2.50
2023-01-05T19:27:21.835Z,2.23
2023-01-05T19:29:48.817Z,5.40
2023-01-05T19:32:15.546Z,2.67
2023-01-05T19:34:42.587Z,3.55
2023-01-05T19:37:09.401Z,2.60
2023-01-05T19:39:36.441Z,2.00
2023-01-05T19:42:03.353Z,6.73
2023-01-05T19:44:30.408Z,9.70
2023-01-05T19:46:57.269Z,16.00
2023-01-05T19:49:26.550Z,18.17
2023-01-05T19:51:54.441Z,17.43
2023-01-05T19:54:22.807Z,13.40
2023-01-05T19:56:49.643Z,4.43
2023-01-05T19:59:22.757Z,4.50
2023-01-05T20:01:49.665Z,4.13
2023-01-05T20:04:17.003Z,6.07
2023-01-05T20:06:45.559Z,3.03
2023-01-05T20:09:16.624Z,3.90
2023-01-05T20:11:45.810Z,3.10
2023-01-05T20:14:19.286Z,3.67
2023-01-05T20:16:56.377Z,2.70
2023-01-05T20:19:26.776Z,5.50
2023-01-05T20:21:55.924Z,4.20
2023-01-05T20:24:28.632Z,7.23
2023-01-05T20:26:58.844Z,3.00
2023-01-05T20:29:27.347Z,4.93
2023-01-05T20:32:00.637Z,6.20
2023-01-05T20:34:32.290Z,4.97
2023-01-05T20:37:01.777Z,7.43
2023-01-05T20:39:28.841Z,5.53
2023-01-05T20:41:56.023Z,6.23
2023-01-05T20:44:26.166Z,4.93
2023-01-05T20:46:54.454Z,6.20
2023-01-05T20:49:22.872Z,4.00
2023-01-05T20:51:49.815Z,3.07
2023-01-05T20:54:17.080Z,6.47
2023-01-05T20:56:46.497Z,4.23
2023-01-05T20:59:17.176Z,7.10
2023-01-05T21:01:44.887Z,6.20
2023-01-05T21:04:13.005Z,4.40
2023-01-05T21:06:40.089Z,5.90
2023-01-05T21:09:08.340Z,5.43
2023-01-05T21:11:36.180Z,6.67
2023-01-05T21:14:06.187Z,3.70
2023-01-05T21:16:38.091Z,4.33
2023-01-05T21:19:07.057Z,4.63
2023-01-05T21:21:34.512Z,3.00
2023-01-05T21:24:02.458Z,4.70
2023-01-05T21:26:29.748Z,5.00
2023-01-05T21:28:56.768Z,4.67
2023-01-05T21:31:26.147Z,3.93
2023-01-05T21:33:54.339Z,4.17
2023-01-05T21:36:27.822Z,4.60
2023-01-05T21:39:03.929Z,4.63
2023-01-05T21:41:51.313Z,4.73
2023-01-05T21:44:19.938Z,4.63
2023-01-05T21:46:48.313Z,7.40
2023-01-05T21:49:16.860Z,5.80
2023-01-05T21:52:02.346Z,5.57
2023-01-05T21:54:48.636Z,5.07
2023-01-05T21:57:16.112Z,7.73
2023-01-05T21:59:43.493Z,7.57
2023-01-05T22:02:11.121Z,9.87
2023-01-05T22:04:38.323Z,7.07
2023-01-05T22:07:07.956Z,6.70
2023-01-05T22:09:36.121Z,5.50
2023-01-05T22:12:07.146Z,3.97
2023-01-05T22:14:35.453Z,4.57
2023-01-05T22:17:02.369Z,6.70
2023-01-05T22:19:29.517Z,5.30
2023-01-05T22:21:56.345Z,12.27
2023-01-05T22:24:23.471Z,5.47
2023-01-05T22:26:50.280Z,4.87
2023-01-05T22:29:18.881Z,5.37
2023-01-05T22:31:45.906Z,5.17
2023-01-05T22:34:13.197Z,4.77
2023-01-05T22:36:40.044Z,5.87
2023-01-05T22:39:07.327Z,4.77
2023-01-05T22:41:34.520Z,4.40
2023-01-05T22:44:02.593Z,4.17
2023-01-05T22:46:30.600Z,4.63
2023-01-05T22:48:58.879Z,7.63
2023-01-05T22:51:31.616Z,8.80
2023-01-05T22:53:59.678Z,7.70
2023-01-05T22:56:29.312Z,7.53
2023-01-05T22:58:57.407Z,7.97
2023-01-05T23:01:29.967Z,7.37
2023-01-05T23:03:58.771Z,8.17
2023-01-05T23:06:27.007Z,7.93
2023-01-05T23:08:55.387Z,7.67
2023-01-05T23:11:25.773Z,8.00
2023-01-05T23:13:53.801Z,5.50
2023-01-05T23:16:22.694Z,6.47
2023-01-05T23:18:50.183Z,4.83
2023-01-05T23:21:19.021Z,5.27
2023-01-05T23:23:46.827Z,6.67
2023-01-05T23:26:15.811Z,6.57
2023-01-05T23:28:44.311Z,5.43
2023-01-05T23:31:14.419Z,5.00
2023-01-05T23:33:42.861Z,4.03
2023-01-05T23:36:11.355Z,5.20
2023-01-05T23:38:39.372Z,5.63
2023-01-05T23:41:08.428Z,6.97
2023-01-05T23:43:38.337Z,5.57
2023-01-05T23:46:07.938Z,3.97
2023-01-05T23:48:36.123Z,4.17
2023-01-05T23:51:04.835Z,3.47
2023-01-05T23:53:31.913Z,4.33
2023-01-05T23:56:13.770Z,5.10
2023-01-05T23:58:42.342Z,4.90
